createdAt,value
2018-07-24T00:00:19.775Z,0
2018-07-24T00:00:45.902Z,0
2018-07-24T00:01:12.038Z,0
2018-07-24T00:01:38.193Z,0
2018-07-24T00:02:04.338Z,0
2018-07-24T00:02:30.493Z,0
2018-07-24T00:02:56.626Z,0
2018-07-24T00:03:22.784Z,0
2018-07-24T00:03:48.924Z,0
2018-07-24T00:04:15.060Z,0
2018-07-24T00:04:41.200Z,0
2018-07-24T00:05:07.339Z,0
2018-07-24T00:05:33.472Z,0
2018-07-24T00:05:59.988Z,0
2018-07-24T00:06:26.057Z,0
2018-07-24T00:06:52.223Z,0
2018-07-24T00:07:18.381Z,0
2018-07-24T00:07:44.981Z,0
2018-07-24T00:08:12.647Z,0
2018-07-24T00:08:38.974Z,0
2018-07-24T00:09:05.106Z,0
2018-07-24T00:09:31.247Z,0
2018-07-24T00:09:57.376Z,0
2018-07-24T00:10:23.535Z,0
2018-07-24T00:10:49.695Z,0
2018-07-24T00:11:15.804Z,0
2018-07-24T00:11:41.965Z,0
2018-07-24T00:12:08.096Z,0
2018-07-24T00:12:34.240Z,0
2018-07-24T00:13:00.402Z,0
2018-07-24T00:13:26.550Z,0
2018-07-24T00:13:52.687Z,0
2018-07-24T00:14:18.841Z,0
2018-07-24T00:14:44.994Z,0
2018-07-24T00:15:11.151Z,0
2018-07-24T00:15:37.291Z,0
2018-07-24T00:16:03.418Z,0
2018-07-24T00:16:29.555Z,0
2018-07-24T00:16:55.686Z,0
2018-07-24T00:17:21.818Z,0
2018-07-24T00:17:47.981Z,0
2018-07-24T00:18:14.120Z,0
2018-07-24T00:18:40.260Z,0
2018-07-24T00:19:06.419Z,0
2018-07-24T00:19:32.549Z,0
2018-07-24T00:19:58.679Z,0
2018-07-24T00:20:24.849Z,0
2018-07-24T00:20:51.006Z,0
2018-07-24T00:21:17.143Z,0
2018-07-24T00:21:43.308Z,0
2018-07-24T00:22:09.442Z,0
2018-07-24T00:22:35.578Z,0
2018-07-24T00:23:01.714Z,0
2018-07-24T00:23:27.857Z,0
2018-07-24T00:23:53.991Z,0
2018-07-24T00:24:20.132Z,0
2018-07-24T00:24:46.285Z,0
2018-07-24T00:25:12.411Z,0
2018-07-24T00:25:38.545Z,0
2018-07-24T00:26:04.684Z,0
2018-07-24T00:26:30.819Z,0
2018-07-24T00:26:56.950Z,0
2018-07-24T00:27:23.088Z,0
2018-07-24T00:27:49.227Z,0
2018-07-24T00:28:15.360Z,0
2018-07-24T00:28:41.496Z,0
2018-07-24T00:29:07.635Z,0
2018-07-24T00:29:33.789Z,0
2018-07-24T00:29:59.940Z,0
2018-07-24T00:30:26.071Z,0
2018-07-24T00:30:52.210Z,0
2018-07-24T00:31:18.427Z,0
2018-07-24T00:31:44.559Z,0
2018-07-24T00:32:10.742Z,0
2018-07-24T00:32:36.853Z,0
2018-07-24T00:33:03.005Z,0
2018-07-24T00:33:29.172Z,0
2018-07-24T00:33:55.342Z,0
2018-07-24T00:34:21.482Z,0
2018-07-24T00:34:47.613Z,0
2018-07-24T00:35:13.748Z,0
2018-07-24T00:35:39.908Z,0
2018-07-24T00:36:06.043Z,0
2018-07-24T00:36:32.178Z,0
2018-07-24T00:36:58.317Z,0
2018-07-24T00:37:24.447Z,0
2018-07-24T00:37:50.585Z,0
2018-07-24T00:38:16.720Z,0
2018-07-24T00:38:42.851Z,0
2018-07-24T00:39:09.001Z,0
2018-07-24T00:39:35.133Z,0
2018-07-24T00:40:01.281Z,0
2018-07-24T00:40:27.454Z,0
2018-07-24T00:40:53.580Z,0
2018-07-24T00:41:19.718Z,0
2018-07-24T00:41:45.850Z,0
2018-07-24T00:42:12.008Z,0
2018-07-24T00:42:38.169Z,0
2018-07-24T00:43:04.300Z,0
2018-07-24T00:43:30.454Z,0
2018-07-24T00:43:56.636Z,0
2018-07-24T00:44:22.780Z,0
2018-07-24T00:44:48.905Z,0
2018-07-24T00:45:15.095Z,0
2018-07-24T00:45:41.803Z,0
2018-07-24T00:46:07.941Z,0
2018-07-24T00:46:34.101Z,0
2018-07-24T00:47:00.242Z,0
2018-07-24T00:47:26.400Z,0
2018-07-24T00:47:52.524Z,0
2018-07-24T00:48:18.707Z,0
2018-07-24T00:48:44.842Z,0
2018-07-24T00:49:10.974Z,0
2018-07-24T00:49:37.103Z,0
2018-07-24T00:50:03.241Z,0
2018-07-24T00:50:29.372Z,0
2018-07-24T00:50:55.502Z,0
2018-07-24T00:51:21.633Z,0
2018-07-24T00:51:47.766Z,0
2018-07-24T00:52:13.925Z,0
2018-07-24T00:52:40.066Z,0
2018-07-24T00:53:06.202Z,0
2018-07-24T00:53:32.369Z,0
2018-07-24T00:53:58.528Z,0
2018-07-24T00:54:24.656Z,0
2018-07-24T00:54:50.791Z,0
2018-07-24T00:55:16.947Z,0
2018-07-24T00:55:43.081Z,0
2018-07-24T00:56:09.218Z,0
2018-07-24T00:56:35.380Z,0
2018-07-24T00:57:01.512Z,0
2018-07-24T00:57:27.640Z,0
2018-07-24T00:57:53.774Z,0
2018-07-24T00:58:19.912Z,0
2018-07-24T00:58:46.049Z,0
2018-07-24T00:59:12.180Z,0
2018-07-24T00:59:38.340Z,0
2018-07-24T01:00:04.499Z,0
2018-07-24T01:00:30.653Z,0
2018-07-24T01:00:56.792Z,0
2018-07-24T01:01:22.949Z,0
2018-07-24T01:01:49.121Z,0
2018-07-24T01:02:15.252Z,0
2018-07-24T01:02:41.387Z,0
2018-07-24T01:03:07.515Z,0
2018-07-24T01:03:33.671Z,0
2018-07-24T01:03:59.808Z,0
2018-07-24T01:04:25.933Z,0
2018-07-24T01:04:52.068Z,0
2018-07-24T01:05:18.229Z,0
2018-07-24T01:05:44.367Z,0
2018-07-24T01:06:10.508Z,0
2018-07-24T01:06:36.641Z,0
2018-07-24T01:07:02.775Z,0
2018-07-24T01:07:28.951Z,0
2018-07-24T01:07:55.085Z,0
2018-07-24T01:08:21.214Z,0
2018-07-24T01:08:47.388Z,0
2018-07-24T01:09:14.980Z,0
2018-07-24T01:09:42.319Z,0
2018-07-24T01:10:09.926Z,0
2018-07-24T01:10:39.043Z,0
2018-07-24T01:11:07.697Z,0
2018-07-24T01:11:33.899Z,0
2018-07-24T01:12:00.038Z,0
2018-07-24T01:12:26.173Z,0
2018-07-24T01:12:52.308Z,0
2018-07-24T01:13:18.460Z,0
2018-07-24T01:13:44.619Z,0
2018-07-24T01:14:10.746Z,0
2018-07-24T01:14:36.886Z,0
2018-07-24T01:15:03.022Z,0
2018-07-24T01:15:29.158Z,0
2018-07-24T01:15:55.295Z,0
2018-07-24T01:16:21.427Z,0
2018-07-24T01:16:47.560Z,0
2018-07-24T01:17:13.700Z,0
2018-07-24T01:17:39.830Z,0
2018-07-24T01:18:05.976Z,0
2018-07-24T01:18:32.111Z,0
2018-07-24T01:18:58.241Z,0
2018-07-24T01:19:24.377Z,0
2018-07-24T01:19:50.508Z,0
2018-07-24T01:20:16.644Z,0
2018-07-24T01:20:42.779Z,0
2018-07-24T01:21:08.918Z,0
2018-07-24T01:21:35.047Z,0
2018-07-24T01:22:01.186Z,0
2018-07-24T01:22:27.323Z,0
2018-07-24T01:22:53.460Z,0
2018-07-24T01:23:19.592Z,0
2018-07-24T01:23:45.750Z,0
2018-07-24T01:24:11.875Z,0
2018-07-24T01:24:38.012Z,0
2018-07-24T01:25:04.148Z,0
2018-07-24T01:25:30.274Z,0
2018-07-24T01:25:56.410Z,0
2018-07-24T01:26:22.569Z,0
2018-07-24T01:26:48.700Z,0
2018-07-24T01:27:14.895Z,0
2018-07-24T01:27:41.005Z,0
2018-07-24T01:28:07.138Z,0
2018-07-24T01:28:33.274Z,0
2018-07-24T01:28:59.410Z,0
2018-07-24T01:29:25.568Z,0
2018-07-24T01:29:51.707Z,0
2018-07-24T01:30:17.842Z,0
2018-07-24T01:30:43.978Z,0
2018-07-24T01:31:10.138Z,0
2018-07-24T01:31:36.270Z,0
2018-07-24T01:32:02.432Z,0
2018-07-24T01:32:28.567Z,0
2018-07-24T01:32:54.740Z,0
2018-07-24T01:33:20.879Z,0
2018-07-24T01:33:47.020Z,0
2018-07-24T01:34:13.162Z,0
2018-07-24T01:34:39.300Z,0
2018-07-24T01:35:05.464Z,0
2018-07-24T01:35:31.625Z,0
2018-07-24T01:35:57.785Z,0
2018-07-24T01:36:23.935Z,0
2018-07-24T01:36:50.100Z,0
2018-07-24T01:37:16.240Z,0
2018-07-24T01:37:42.381Z,0
2018-07-24T01:38:08.543Z,0
2018-07-24T01:38:34.708Z,0
2018-07-24T01:39:00.850Z,0
2018-07-24T01:39:27.011Z,0
2018-07-24T01:39:53.198Z,0
2018-07-24T01:40:19.366Z,0
2018-07-24T01:40:45.501Z,0
2018-07-24T01:41:11.637Z,0
2018-07-24T01:41:37.776Z,0
2018-07-24T01:42:03.937Z,0
2018-07-24T01:42:30.102Z,0
2018-07-24T01:42:56.235Z,0
2018-07-24T01:43:22.405Z,0
2018-07-24T01:43:48.544Z,0
2018-07-24T01:44:14.692Z,0
2018-07-24T01:44:40.833Z,0
2018-07-24T01:45:06.969Z,0
2018-07-24T01:45:33.107Z,0
2018-07-24T01:45:59.254Z,0
2018-07-24T01:46:25.390Z,0
2018-07-24T01:46:51.547Z,0
2018-07-24T01:47:17.692Z,0
2018-07-24T01:47:43.859Z,0
2018-07-24T01:48:09.996Z,0
2018-07-24T01:48:36.135Z,0
2018-07-24T01:49:02.274Z,0
2018-07-24T01:49:28.418Z,0
2018-07-24T01:49:54.548Z,0
2018-07-24T01:50:20.691Z,0
2018-07-24T01:50:46.833Z,0
2018-07-24T01:51:13.003Z,0
2018-07-24T01:51:39.140Z,0
2018-07-24T01:52:05.338Z,0
2018-07-24T01:52:31.479Z,0
2018-07-24T01:52:57.615Z,0
2018-07-24T01:53:23.759Z,0
2018-07-24T01:53:49.919Z,0
2018-07-24T01:54:16.061Z,0
2018-07-24T01:54:42.200Z,0
2018-07-24T01:55:08.341Z,0
2018-07-24T01:55:34.470Z,0
2018-07-24T01:56:00.606Z,0
2018-07-24T01:56:26.747Z,0
2018-07-24T01:56:52.888Z,0
2018-07-24T01:57:19.055Z,0
2018-07-24T01:57:45.191Z,0
2018-07-24T01:58:11.332Z,0
2018-07-24T01:58:37.500Z,0
2018-07-24T01:59:03.637Z,0
2018-07-24T01:59:29.774Z,0
2018-07-24T01:59:55.914Z,0
2018-07-24T02:00:22.060Z,0
2018-07-24T02:00:48.195Z,0
2018-07-24T02:01:14.329Z,0
2018-07-24T02:01:40.471Z,0
2018-07-24T02:02:06.622Z,0
2018-07-24T02:02:32.792Z,0
2018-07-24T02:02:58.926Z,0
2018-07-24T02:03:25.071Z,0
2018-07-24T02:03:51.211Z,0
2018-07-24T02:04:17.346Z,0
2018-07-24T02:04:43.488Z,0
2018-07-24T02:05:09.627Z,0
2018-07-24T02:05:35.760Z,0
2018-07-24T02:06:01.905Z,0
2018-07-24T02:06:28.046Z,0
2018-07-24T02:06:54.184Z,0
2018-07-24T02:07:20.328Z,0
2018-07-24T02:07:46.493Z,0
2018-07-24T02:08:12.639Z,0
2018-07-24T02:08:38.774Z,0
2018-07-24T02:09:04.912Z,0
2018-07-24T02:09:31.049Z,0
2018-07-24T02:09:57.182Z,0
2018-07-24T02:10:23.327Z,0
2018-07-24T02:10:49.460Z,0
2018-07-24T02:11:15.629Z,0
2018-07-24T02:11:41.774Z,0
2018-07-24T02:12:07.910Z,0
2018-07-24T02:12:34.046Z,0
2018-07-24T02:13:00.186Z,0
2018-07-24T02:13:26.343Z,0
2018-07-24T02:13:52.488Z,0
2018-07-24T02:14:18.658Z,0
2018-07-24T02:14:44.798Z,0
2018-07-24T02:15:10.963Z,0
2018-07-24T02:15:37.127Z,0
2018-07-24T02:16:03.277Z,0
2018-07-24T02:16:29.439Z,0
2018-07-24T02:16:55.622Z,0
2018-07-24T02:17:21.757Z,0
2018-07-24T02:17:47.894Z,0
2018-07-24T02:18:14.033Z,0
2018-07-24T02:18:40.206Z,0
2018-07-24T02:19:06.339Z,0
2018-07-24T02:19:32.480Z,0
2018-07-24T02:19:58.615Z,0
2018-07-24T02:20:24.761Z,0
2018-07-24T02:20:50.899Z,0
2018-07-24T02:21:17.032Z,0
2018-07-24T02:21:43.171Z,0
2018-07-24T02:22:09.308Z,0
2018-07-24T02:22:35.450Z,0
2018-07-24T02:23:01.592Z,0
2018-07-24T02:23:27.749Z,0
2018-07-24T02:23:53.888Z,0
2018-07-24T02:24:20.051Z,0
2018-07-24T02:24:46.189Z,0
2018-07-24T02:25:12.333Z,0
2018-07-24T02:25:38.500Z,0
2018-07-24T02:26:04.636Z,0
2018-07-24T02:26:30.791Z,0
2018-07-24T02:26:56.939Z,0
2018-07-24T02:27:23.069Z,0
2018-07-24T02:27:49.211Z,0
2018-07-24T02:28:15.349Z,0
2018-07-24T02:28:41.488Z,0
2018-07-24T02:29:07.624Z,0
2018-07-24T02:29:33.809Z,0
2018-07-24T02:29:59.958Z,0
2018-07-24T02:30:26.104Z,0
2018-07-24T02:30:52.279Z,0
2018-07-24T02:31:18.439Z,0
2018-07-24T02:31:44.603Z,0
2018-07-24T02:32:10.769Z,0
2018-07-24T02:32:36.924Z,0
2018-07-24T02:33:03.093Z,0
2018-07-24T02:33:29.219Z,0
2018-07-24T02:33:55.402Z,0
2018-07-24T02:34:21.612Z,0
2018-07-24T02:34:47.753Z,0
2018-07-24T02:35:13.954Z,0
2018-07-24T02:35:40.090Z,0
2018-07-24T02:36:06.259Z,0
2018-07-24T02:36:32.400Z,0
2018-07-24T02:36:58.563Z,0
2018-07-24T02:37:24.746Z,0
2018-07-24T02:37:50.887Z,0
2018-07-24T02:38:17.059Z,0
2018-07-24T02:38:43.243Z,0
2018-07-24T02:39:09.377Z,0
2018-07-24T02:39:35.540Z,0
2018-07-24T02:40:01.704Z,0
2018-07-24T02:40:27.835Z,0
2018-07-24T02:40:54.022Z,0
2018-07-24T02:41:20.182Z,0
2018-07-24T02:41:46.369Z,0
2018-07-24T02:42:12.533Z,0
2018-07-24T02:42:38.671Z,0
2018-07-24T02:43:04.813Z,0
2018-07-24T02:43:30.985Z,0
2018-07-24T02:43:57.153Z,0
2018-07-24T02:44:23.331Z,0
2018-07-24T02:44:49.482Z,0
2018-07-24T02:45:15.633Z,0
2018-07-24T02:45:41.821Z,0
2018-07-24T02:46:07.962Z,0
2018-07-24T02:46:34.123Z,0
2018-07-24T02:47:00.292Z,0
2018-07-24T02:47:26.431Z,0
2018-07-24T02:47:52.569Z,0
2018-07-24T02:48:18.731Z,0
2018-07-24T02:48:44.892Z,0
2018-07-24T02:49:11.044Z,0
2018-07-24T02:49:37.181Z,0
2018-07-24T02:50:03.374Z,0
2018-07-24T02:50:29.539Z,0
2018-07-24T02:50:55.702Z,0
2018-07-24T02:51:21.833Z,0
2018-07-24T02:51:48.017Z,0
2018-07-24T02:52:14.203Z,0
2018-07-24T02:52:40.393Z,0
2018-07-24T02:53:06.532Z,0
2018-07-24T02:53:32.694Z,0
2018-07-24T02:53:58.832Z,0
2018-07-24T02:54:25.003Z,4
2018-07-24T02:54:51.140Z,4
2018-07-24T02:55:17.306Z,4
2018-07-24T02:55:43.468Z,4
2018-07-24T02:56:09.647Z,4
2018-07-24T02:56:35.812Z,4
2018-07-24T02:57:01.952Z,0
2018-07-24T02:57:28.114Z,0
2018-07-24T02:57:54.253Z,0
2018-07-24T02:58:20.394Z,4
2018-07-24T02:58:46.556Z,4
2018-07-24T02:59:12.747Z,4
2018-07-24T02:59:38.901Z,4
2018-07-24T03:00:05.058Z,4
2018-07-24T03:00:31.191Z,4
2018-07-24T03:00:57.328Z,4
2018-07-24T03:01:23.504Z,4
2018-07-24T03:01:49.645Z,4
2018-07-24T03:02:15.777Z,4
2018-07-24T03:02:41.949Z,8
2018-07-24T03:03:08.206Z,4
2018-07-24T03:03:34.653Z,4
2018-07-24T03:04:00.901Z,4
2018-07-24T03:04:27.196Z,8
2018-07-24T03:04:53.428Z,4
2018-07-24T03:05:19.576Z,8
2018-07-24T03:05:45.738Z,8
2018-07-24T03:06:11.903Z,8
2018-07-24T03:06:38.037Z,8
2018-07-24T03:07:04.181Z,8
2018-07-24T03:07:30.322Z,8
2018-07-24T03:07:56.530Z,12
2018-07-24T03:08:22.720Z,12
2018-07-24T03:08:48.881Z,12
2018-07-24T03:09:15.046Z,16
2018-07-24T03:09:41.202Z,12
2018-07-24T03:10:07.360Z,12
2018-07-24T03:10:33.488Z,16
2018-07-24T03:10:59.657Z,16
2018-07-24T03:11:25.812Z,20
2018-07-24T03:11:51.969Z,16
2018-07-24T03:12:18.118Z,16
2018-07-24T03:12:44.255Z,20
2018-07-24T03:13:10.392Z,24
2018-07-24T03:13:36.550Z,24
2018-07-24T03:14:02.714Z,24
2018-07-24T03:14:28.908Z,24
2018-07-24T03:14:55.074Z,24
2018-07-24T03:15:21.245Z,28
2018-07-24T03:15:47.423Z,28
2018-07-24T03:16:13.653Z,32
2018-07-24T03:16:39.778Z,32
2018-07-24T03:17:05.914Z,36
2018-07-24T03:17:32.074Z,40
2018-07-24T03:17:58.248Z,40
2018-07-24T03:18:24.433Z,40
2018-07-24T03:18:50.574Z,44
2018-07-24T03:19:16.760Z,44
2018-07-24T03:19:42.902Z,48
2018-07-24T03:20:09.068Z,56
2018-07-24T03:20:35.253Z,56
2018-07-24T03:21:01.419Z,56
2018-07-24T03:21:27.579Z,64
2018-07-24T03:21:53.742Z,64
2018-07-24T03:22:19.879Z,68
2018-07-24T03:22:46.021Z,68
2018-07-24T03:23:12.180Z,76
2018-07-24T03:23:38.327Z,80
2018-07-24T03:24:04.510Z,84
2018-07-24T03:24:30.651Z,88
2018-07-24T03:24:56.865Z,88
2018-07-24T03:25:23.062Z,96
2018-07-24T03:25:49.213Z,100
2018-07-24T03:26:15.373Z,108
2018-07-24T03:26:41.514Z,108
2018-07-24T03:27:07.655Z,116
2018-07-24T03:27:33.793Z,120
2018-07-24T03:27:59.930Z,128
2018-07-24T03:28:26.076Z,132
2018-07-24T03:28:52.218Z,140
2018-07-24T03:29:18.363Z,144
2018-07-24T03:29:44.519Z,152
2018-07-24T03:30:10.664Z,156
2018-07-24T03:30:36.834Z,164
2018-07-24T03:31:02.996Z,168
2018-07-24T03:31:29.215Z,176
2018-07-24T03:31:55.439Z,184
2018-07-24T03:32:21.610Z,196
2018-07-24T03:32:47.748Z,200
2018-07-24T03:33:13.888Z,208
2018-07-24T03:33:40.053Z,220
2018-07-24T03:34:06.187Z,224
2018-07-24T03:34:32.357Z,236
2018-07-24T03:34:58.517Z,244
2018-07-24T03:35:24.654Z,252
2018-07-24T03:35:50.795Z,264
2018-07-24T03:36:16.940Z,272
2018-07-24T03:36:43.072Z,280
2018-07-24T03:37:09.236Z,292
2018-07-24T03:37:35.398Z,300
2018-07-24T03:38:01.538Z,312
2018-07-24T03:38:27.706Z,324
2018-07-24T03:38:53.844Z,336
2018-07-24T03:39:19.980Z,344
2018-07-24T03:39:46.188Z,356
2018-07-24T03:40:12.283Z,368
2018-07-24T03:40:38.421Z,380
2018-07-24T03:41:04.591Z,392
2018-07-24T03:41:30.726Z,404
2018-07-24T03:41:56.870Z,420
2018-07-24T03:42:23.002Z,428
2018-07-24T03:42:49.146Z,444
2018-07-24T03:43:15.314Z,456
2018-07-24T03:43:41.454Z,468
2018-07-24T03:44:07.589Z,480
2018-07-24T03:44:33.731Z,500
2018-07-24T03:44:59.940Z,508
2018-07-24T03:45:26.034Z,524
2018-07-24T03:45:52.192Z,540
2018-07-24T03:46:18.358Z,560
2018-07-24T03:46:44.496Z,572
2018-07-24T03:47:10.635Z,588
2018-07-24T03:47:36.777Z,604
2018-07-24T03:48:02.908Z,620
2018-07-24T03:48:29.046Z,636
2018-07-24T03:48:55.216Z,652
2018-07-24T03:49:21.346Z,668
2018-07-24T03:49:47.504Z,688
2018-07-24T03:50:13.649Z,704
2018-07-24T03:50:39.790Z,724
2018-07-24T03:51:05.959Z,740
2018-07-24T03:51:32.092Z,760
2018-07-24T03:51:58.233Z,780
2018-07-24T03:52:24.375Z,796
2018-07-24T03:52:50.516Z,812
2018-07-24T03:53:16.678Z,836
2018-07-24T03:53:42.824Z,852
2018-07-24T03:54:08.949Z,872
2018-07-24T03:54:35.111Z,892
2018-07-24T03:55:01.259Z,912
2018-07-24T03:55:27.392Z,932
2018-07-24T03:55:53.559Z,952
2018-07-24T03:56:19.697Z,976
2018-07-24T03:56:45.825Z,996
2018-07-24T03:57:11.958Z,1016
2018-07-24T03:57:38.128Z,1036
2018-07-24T03:58:04.301Z,1060
2018-07-24T03:58:30.436Z,1084
2018-07-24T03:58:56.575Z,1108
2018-07-24T03:59:22.716Z,1128
2018-07-24T03:59:48.858Z,1152
2018-07-24T04:00:15.027Z,1172
2018-07-24T04:00:41.188Z,1196
2018-07-24T04:01:07.347Z,1220
2018-07-24T04:01:33.485Z,1244
2018-07-24T04:01:59.624Z,1268
2018-07-24T04:02:25.781Z,1292
2018-07-24T04:02:51.926Z,1316
2018-07-24T04:03:18.069Z,1340
2018-07-24T04:03:44.213Z,1364
2018-07-24T04:04:10.348Z,1388
2018-07-24T04:04:36.492Z,1416
2018-07-24T04:05:02.643Z,1436
2018-07-24T04:05:28.786Z,1464
2018-07-24T04:05:54.922Z,1488
2018-07-24T04:06:21.059Z,1512
2018-07-24T04:06:47.195Z,1536
2018-07-24T04:07:13.335Z,1564
2018-07-24T04:07:39.501Z,1588
2018-07-24T04:08:05.662Z,1616
2018-07-24T04:08:31.802Z,1636
2018-07-24T04:08:57.942Z,1664
2018-07-24T04:09:24.079Z,1688
2018-07-24T04:09:50.219Z,1716
2018-07-24T04:10:16.362Z,1740
2018-07-24T04:10:42.498Z,1768
2018-07-24T04:11:08.679Z,1796
2018-07-24T04:11:34.813Z,1824
2018-07-24T04:12:00.984Z,1848
2018-07-24T04:12:27.140Z,1876
2018-07-24T04:12:53.285Z,1900
2018-07-24T04:13:19.438Z,1928
2018-07-24T04:13:45.578Z,1956
2018-07-24T04:14:11.720Z,1984
2018-07-24T04:14:37.886Z,2012
2018-07-24T04:15:04.024Z,2040
2018-07-24T04:15:30.171Z,2060
2018-07-24T04:15:56.330Z,2092
2018-07-24T04:16:22.470Z,2116
2018-07-24T04:16:48.611Z,2140
2018-07-24T04:17:14.757Z,2168
2018-07-24T04:17:40.892Z,2196
2018-07-24T04:18:07.026Z,2224
2018-07-24T04:18:33.171Z,2252
2018-07-24T04:18:59.329Z,2276
2018-07-24T04:19:25.465Z,2304
2018-07-24T04:19:51.602Z,2332
2018-07-24T04:20:17.762Z,2360
2018-07-24T04:20:43.919Z,2384
2018-07-24T04:21:10.062Z,2408
2018-07-24T04:21:36.222Z,2436
2018-07-24T04:22:02.363Z,2464
2018-07-24T04:22:28.508Z,2492
2018-07-24T04:22:54.665Z,2520
2018-07-24T04:23:20.850Z,2544
2018-07-24T04:23:47.019Z,2568
2018-07-24T04:24:13.198Z,2596
2018-07-24T04:24:39.373Z,2620
2018-07-24T04:25:05.561Z,2644
2018-07-24T04:25:31.698Z,2672
2018-07-24T04:25:57.850Z,2696
2018-07-24T04:26:23.993Z,2720
2018-07-24T04:26:50.155Z,2744
2018-07-24T04:27:16.293Z,2768
2018-07-24T04:27:42.429Z,2792
2018-07-24T04:28:08.594Z,2816
2018-07-24T04:28:34.738Z,2844
2018-07-24T04:29:00.872Z,2868
2018-07-24T04:29:27.010Z,2892
2018-07-24T04:29:53.167Z,2924
2018-07-24T04:30:19.327Z,2952
2018-07-24T04:30:45.558Z,2976
2018-07-24T04:31:11.660Z,3004
2018-07-24T04:31:37.794Z,3032
2018-07-24T04:32:03.964Z,3064
2018-07-24T04:32:30.135Z,3096
2018-07-24T04:32:56.294Z,3128
2018-07-24T04:33:22.534Z,3156
2018-07-24T04:33:48.693Z,3180
2018-07-24T04:34:14.836Z,3212
2018-07-24T04:34:41.024Z,3244
2018-07-24T04:35:07.160Z,3276
2018-07-24T04:35:33.306Z,3304
2018-07-24T04:35:59.448Z,3336
2018-07-24T04:36:25.590Z,3372
2018-07-24T04:36:51.728Z,3404
2018-07-24T04:37:17.861Z,3436
2018-07-24T04:37:44.004Z,3472
2018-07-24T04:38:10.163Z,3504
2018-07-24T04:38:36.300Z,3532
2018-07-24T04:39:02.444Z,3564
2018-07-24T04:39:28.584Z,3596
2018-07-24T04:39:54.742Z,3624
2018-07-24T04:40:20.971Z,3656
2018-07-24T04:40:47.056Z,3680
2018-07-24T04:41:13.235Z,3712
2018-07-24T04:41:39.368Z,3740
2018-07-24T04:42:05.561Z,3772
2018-07-24T04:42:31.700Z,3800
2018-07-24T04:42:57.837Z,3828
2018-07-24T04:43:23.971Z,3852
2018-07-24T04:43:50.111Z,3876
2018-07-24T04:44:16.248Z,3904
2018-07-24T04:44:42.411Z,3936
2018-07-24T04:45:08.555Z,3956
2018-07-24T04:45:34.707Z,3992
2018-07-24T04:46:00.829Z,4020
2018-07-24T04:46:26.996Z,4052
2018-07-24T04:46:53.159Z,4080
2018-07-24T04:47:19.301Z,4116
2018-07-24T04:47:45.443Z,4148
2018-07-24T04:48:11.584Z,4180
2018-07-24T04:48:37.716Z,4212
2018-07-24T04:49:03.856Z,4240
2018-07-24T04:49:30.019Z,4280
2018-07-24T04:49:56.155Z,4308
2018-07-24T04:50:22.289Z,4344
2018-07-24T04:50:48.434Z,4376
2018-07-24T04:51:14.573Z,4416
2018-07-24T04:51:40.715Z,4452
2018-07-24T04:52:06.852Z,4484
2018-07-24T04:52:32.990Z,4520
2018-07-24T04:52:59.132Z,4552
2018-07-24T04:53:25.273Z,4588
2018-07-24T04:53:51.414Z,4624
2018-07-24T04:54:17.568Z,4660
2018-07-24T04:54:43.721Z,4700
2018-07-24T04:55:09.881Z,4744
2018-07-24T04:55:36.018Z,4792
2018-07-24T04:56:02.184Z,4840
2018-07-24T04:56:28.319Z,4896
2018-07-24T04:56:54.458Z,4956
2018-07-24T04:57:20.627Z,5020
2018-07-24T04:57:46.766Z,5080
2018-07-24T04:58:12.903Z,5140
2018-07-24T04:58:39.053Z,5196
2018-07-24T04:59:05.181Z,5248
2018-07-24T04:59:31.321Z,5300
2018-07-24T04:59:57.516Z,5340
2018-07-24T05:00:23.659Z,5376
2018-07-24T05:00:49.848Z,5408
2018-07-24T05:01:15.994Z,5436
2018-07-24T05:01:42.150Z,5456
2018-07-24T05:02:08.288Z,5476
2018-07-24T05:02:34.460Z,5492
2018-07-24T05:03:00.575Z,5516
2018-07-24T05:03:26.741Z,5532
2018-07-24T05:03:52.874Z,5556
2018-07-24T05:04:19.036Z,5576
2018-07-24T05:04:45.180Z,5592
2018-07-24T05:05:11.314Z,5612
2018-07-24T05:05:37.457Z,5632
2018-07-24T05:06:03.591Z,5648
2018-07-24T05:06:29.732Z,5668
2018-07-24T05:06:55.873Z,5684
2018-07-24T05:07:22.010Z,5700
2018-07-24T05:07:48.153Z,5712
2018-07-24T05:08:14.285Z,5724
2018-07-24T05:08:40.418Z,5736
2018-07-24T05:09:06.592Z,5748
2018-07-24T05:09:32.790Z,5764
2018-07-24T05:09:58.879Z,5780
2018-07-24T05:10:25.082Z,5796
2018-07-24T05:10:51.199Z,5808
2018-07-24T05:11:17.380Z,5824
2018-07-24T05:11:43.544Z,5844
2018-07-24T05:12:09.690Z,5860
2018-07-24T05:12:35.844Z,5880
2018-07-24T05:13:01.987Z,5896
2018-07-24T05:13:28.125Z,5916
2018-07-24T05:13:54.287Z,5932
2018-07-24T05:14:20.447Z,5948
2018-07-24T05:14:46.629Z,5964
2018-07-24T05:15:12.727Z,5984
2018-07-24T05:15:38.874Z,6000
2018-07-24T05:16:05.012Z,6012
2018-07-24T05:16:31.155Z,6036
2018-07-24T05:16:57.294Z,6052
2018-07-24T05:17:23.435Z,6072
2018-07-24T05:17:49.577Z,6092
2018-07-24T05:18:15.721Z,6108
2018-07-24T05:18:41.862Z,6128
2018-07-24T05:19:07.992Z,6144
2018-07-24T05:19:34.139Z,6172
2018-07-24T05:20:00.282Z,6184
2018-07-24T05:20:26.421Z,6200
2018-07-24T05:20:52.558Z,6220
2018-07-24T05:21:18.698Z,6244
2018-07-24T05:21:44.862Z,6264
2018-07-24T05:22:10.996Z,6280
2018-07-24T05:22:37.152Z,6304
2018-07-24T05:23:03.291Z,6324
2018-07-24T05:23:29.515Z,6344
2018-07-24T05:23:55.591Z,6364
2018-07-24T05:24:21.752Z,6388
2018-07-24T05:24:47.884Z,6412
2018-07-24T05:25:14.056Z,6428
2018-07-24T05:25:40.196Z,6448
2018-07-24T05:26:06.334Z,6472
2018-07-24T05:26:32.468Z,6492
2018-07-24T05:26:58.638Z,6512
2018-07-24T05:27:24.782Z,6536
2018-07-24T05:27:50.944Z,6552
2018-07-24T05:28:17.098Z,6576
2018-07-24T05:28:43.246Z,6596
2018-07-24T05:29:09.384Z,6612
2018-07-24T05:29:35.530Z,6636
2018-07-24T05:30:01.718Z,6656
2018-07-24T05:30:27.856Z,6676
2018-07-24T05:30:53.995Z,6692
2018-07-24T05:31:20.128Z,6712
2018-07-24T05:31:46.271Z,6732
2018-07-24T05:32:12.415Z,6748
2018-07-24T05:32:38.557Z,6768
2018-07-24T05:33:04.779Z,6780
2018-07-24T05:33:30.923Z,6796
2018-07-24T05:33:57.069Z,6808
2018-07-24T05:34:23.250Z,6828
2018-07-24T05:34:49.392Z,6848
2018-07-24T05:35:15.537Z,6856
2018-07-24T05:35:41.677Z,6876
2018-07-24T05:36:07.821Z,6888
2018-07-24T05:36:33.959Z,6904
2018-07-24T05:37:00.128Z,6924
2018-07-24T05:37:26.292Z,6948
2018-07-24T05:37:52.455Z,6968
2018-07-24T05:38:18.594Z,6988
2018-07-24T05:38:44.784Z,7008
2018-07-24T05:39:10.900Z,7036
2018-07-24T05:39:37.052Z,7060
2018-07-24T05:40:03.242Z,7080
2018-07-24T05:40:29.375Z,7104
2018-07-24T05:40:55.523Z,7132
2018-07-24T05:41:21.657Z,7152
2018-07-24T05:41:47.803Z,7180
2018-07-24T05:42:13.942Z,7204
2018-07-24T05:42:40.078Z,7228
2018-07-24T05:43:06.266Z,7248
2018-07-24T05:43:32.380Z,7280
2018-07-24T05:43:58.515Z,7300
2018-07-24T05:44:24.678Z,7320
2018-07-24T05:44:50.824Z,7344
2018-07-24T05:45:16.987Z,7368
2018-07-24T05:45:43.121Z,7388
2018-07-24T05:46:09.264Z,7408
2018-07-24T05:46:35.396Z,7428
2018-07-24T05:47:01.532Z,7448
2018-07-24T05:47:27.728Z,7468
2018-07-24T05:47:53.867Z,7480
2018-07-24T05:48:20.006Z,7504
2018-07-24T05:48:46.190Z,7524
2018-07-24T05:49:12.303Z,7548
2018-07-24T05:49:38.465Z,7568
2018-07-24T05:50:04.676Z,7592
2018-07-24T05:50:30.822Z,7616
2018-07-24T05:50:57.013Z,7636
2018-07-24T05:51:23.147Z,7652
2018-07-24T05:51:49.295Z,7664
2018-07-24T05:52:15.425Z,7668
2018-07-24T05:52:41.592Z,7672
2018-07-24T05:53:07.728Z,7696
2018-07-24T05:53:33.880Z,7728
2018-07-24T05:54:00.039Z,7744
2018-07-24T05:54:26.185Z,7760
2018-07-24T05:54:52.326Z,7772
2018-07-24T05:55:18.470Z,7788
2018-07-24T05:55:44.602Z,7808
2018-07-24T05:56:10.764Z,7820
2018-07-24T05:56:36.902Z,7836
2018-07-24T05:57:03.044Z,7852
2018-07-24T05:57:29.181Z,7872
2018-07-24T05:57:55.325Z,7880
2018-07-24T05:58:21.465Z,7892
2018-07-24T05:58:47.609Z,7912
2018-07-24T05:59:13.764Z,7928
2018-07-24T05:59:39.929Z,7948
2018-07-24T06:00:06.061Z,7964
2018-07-24T06:00:32.238Z,7976
2018-07-24T06:00:58.375Z,7984
2018-07-24T06:01:24.517Z,7996
2018-07-24T06:01:50.696Z,8008
2018-07-24T06:02:16.828Z,8020
2018-07-24T06:02:43.163Z,8028
2018-07-24T06:03:09.315Z,8032
2018-07-24T06:03:35.456Z,8040
2018-07-24T06:04:01.593Z,8052
2018-07-24T06:04:27.749Z,8060
2018-07-24T06:04:53.901Z,8064
2018-07-24T06:05:20.083Z,8076
2018-07-24T06:05:46.222Z,8092
2018-07-24T06:06:12.359Z,8108
2018-07-24T06:06:38.508Z,8124
2018-07-24T06:07:04.666Z,8144
2018-07-24T06:07:30.818Z,8160
2018-07-24T06:07:56.966Z,8180
2018-07-24T06:08:23.113Z,8196
2018-07-24T06:08:49.274Z,8212
2018-07-24T06:09:15.409Z,8224